sensor_id;sensor_type;location;lat;lon;timestamp;P1;durP1;ratioP1;P2;durP2;ratioP2
74632;SDS011;63139;52.018;8.552;2022-09-14T00:01:33;6.38;;;1.17;;
74632;SDS011;63139;52.018;8.552;2022-09-14T00:04:02;1.45;;;0.98;;
74632;SDS011;63139;52.018;8.552;2022-09-14T00:06:29;2.30;;;1.10;;
74632;SDS011;63139;52.018;8.552;2022-09-14T00:08:55;4.47;;;1.30;;
74632;SDS011;63139;52.018;8.552;2022-09-14T00:13:47;2.78;;;1.00;;
74632;SDS011;63139;52.018;8.552;2022-09-14T00:16:13;4.47;;;1.20;;
74632;SDS011;63139;52.018;8.552;2022-09-14T00:18:41;1.70;;;0.90;;
74632;SDS011;63139;52.018;8.552;2022-09-14T00:21:08;2.20;;;0.82;;
74632;SDS011;63139;52.018;8.552;2022-09-14T00:23:35;4.35;;;1.40;;
74632;SDS011;63139;52.018;8.552;2022-09-14T00:26:01;4.85;;;1.10;;
74632;SDS011;63139;52.018;8.552;2022-09-14T00:28:27;2.58;;;1.10;;
74632;SDS011;63139;52.018;8.552;2022-09-14T00:30:52;3.37;;;1.10;;
74632;SDS011;63139;52.018;8.552;2022-09-14T00:33:17;2.03;;;1.03;;
74632;SDS011;63139;52.018;8.552;2022-09-14T00:35:44;2.10;;;1.03;;
74632;SDS011;63139;52.018;8.552;2022-09-14T00:38:10;4.75;;;1.23;;
74632;SDS011;63139;52.018;8.552;2022-09-14T00:40:35;1.60;;;0.90;;
74632;SDS011;63139;52.018;8.552;2022-09-14T00:43:01;3.40;;;1.50;;
74632;SDS011;63139;52.018;8.552;2022-09-14T00:45:26;2.77;;;1.40;;
74632;SDS011;63139;52.018;8.552;2022-09-14T00:47:52;1.20;;;1.10;;
74632;SDS011;63139;52.018;8.552;2022-09-14T00:50:17;2.17;;;1.20;;
74632;SDS011;63139;52.018;8.552;2022-09-14T00:52:46;2.73;;;1.10;;
74632;SDS011;63139;52.018;8.552;2022-09-14T00:55:14;4.55;;;1.10;;
74632;SDS011;63139;52.018;8.552;2022-09-14T00:57:42;3.72;;;1.20;;
74632;SDS011;63139;52.018;8.552;2022-09-14T01:00:09;5.85;;;1.30;;
74632;SDS011;63139;52.018;8.552;2022-09-14T01:02:35;5.57;;;1.20;;
74632;SDS011;63139;52.018;8.552;2022-09-14T01:05:01;3.22;;;1.10;;
74632;SDS011;63139;52.018;8.552;2022-09-14T01:07:38;2.20;;;1.13;;
74632;SDS011;63139;52.018;8.552;2022-09-14T01:10:16;2.33;;;0.93;;
74632;SDS011;63139;52.018;8.552;2022-09-14T01:12:48;4.07;;;1.15;;
74632;SDS011;63139;52.018;8.552;2022-09-14T01:15:19;3.13;;;1.35;;
74632;SDS011;63139;52.018;8.552;2022-09-14T01:17:50;2.70;;;1.13;;
74632;SDS011;63139;52.018;8.552;2022-09-14T01:20:21;3.33;;;1.33;;
74632;SDS011;63139;52.018;8.552;2022-09-14T01:22:51;3.22;;;1.52;;
74632;SDS011;63139;52.018;8.552;2022-09-14T01:25:34;2.85;;;1.00;;
74632;SDS011;63139;52.018;8.552;2022-09-14T01:28:07;5.75;;;1.30;;
74632;SDS011;63139;52.018;8.552;2022-09-14T01:30:34;3.80;;;1.30;;
74632;SDS011;63139;52.018;8.552;2022-09-14T01:33:02;2.25;;;1.05;;
74632;SDS011;63139;52.018;8.552;2022-09-14T01:35:32;3.20;;;1.30;;
74632;SDS011;63139;52.018;8.552;2022-09-14T01:38:00;2.25;;;1.10;;
74632;SDS011;63139;52.018;8.552;2022-09-14T01:40:28;2.83;;;1.20;;
74632;SDS011;63139;52.018;8.552;2022-09-14T01:42:57;4.28;;;1.63;;
74632;SDS011;63139;52.018;8.552;2022-09-14T01:45:25;3.05;;;1.30;;
74632;SDS011;63139;52.018;8.552;2022-09-14T01:47:53;2.17;;;1.20;;
74632;SDS011;63139;52.018;8.552;2022-09-14T01:50:21;5.28;;;1.50;;
74632;SDS011;63139;52.018;8.552;2022-09-14T01:52:50;4.15;;;1.33;;
74632;SDS011;63139;52.018;8.552;2022-09-14T01:55:19;5.15;;;1.70;;
74632;SDS011;63139;52.018;8.552;2022-09-14T01:57:47;6.25;;;1.50;;
74632;SDS011;63139;52.018;8.552;2022-09-14T02:00:15;5.57;;;1.35;;
74632;SDS011;63139;52.018;8.552;2022-09-14T02:02:45;1.63;;;1.02;;
74632;SDS011;63139;52.018;8.552;2022-09-14T02:05:14;3.40;;;1.20;;
74632;SDS011;63139;52.018;8.552;2022-09-14T02:07:42;3.58;;;1.38;;
74632;SDS011;63139;52.018;8.552;2022-09-14T02:10:08;8.10;;;1.57;;
74632;SDS011;63139;52.018;8.552;2022-09-14T02:12:35;3.00;;;1.45;;
74632;SDS011;63139;52.018;8.552;2022-09-14T02:15:02;5.47;;;1.52;;
74632;SDS011;63139;52.018;8.552;2022-09-14T02:17:28;3.47;;;1.38;;
74632;SDS011;63139;52.018;8.552;2022-09-14T02:19:56;4.03;;;1.40;;
74632;SDS011;63139;52.018;8.552;2022-09-14T02:22:24;3.13;;;1.55;;
74632;SDS011;63139;52.018;8.552;2022-09-14T02:24:51;7.68;;;1.50;;
74632;SDS011;63139;52.018;8.552;2022-09-14T02:27:16;4.17;;;1.40;;
74632;SDS011;63139;52.018;8.552;2022-09-14T02:29:42;2.57;;;1.37;;
74632;SDS011;63139;52.018;8.552;2022-09-14T02:32:10;5.93;;;1.33;;
74632;SDS011;63139;52.018;8.552;2022-09-14T02:34:45;2.90;;;1.20;;
74632;SDS011;63139;52.018;8.552;2022-09-14T02:37:18;4.93;;;1.50;;
74632;SDS011;63139;52.018;8.552;2022-09-14T02:39:49;9.43;;;1.85;;
74632;SDS011;63139;52.018;8.552;2022-09-14T02:42:22;5.45;;;1.58;;
74632;SDS011;63139;52.018;8.552;2022-09-14T02:44:53;3.20;;;1.40;;
74632;SDS011;63139;52.018;8.552;2022-09-14T02:47:26;4.22;;;1.35;;
74632;SDS011;63139;52.018;8.552;2022-09-14T02:49:57;4.30;;;1.92;;
74632;SDS011;63139;52.018;8.552;2022-09-14T02:52:29;5.63;;;1.80;;
74632;SDS011;63139;52.018;8.552;2022-09-14T02:54:56;4.65;;;1.55;;
74632;SDS011;63139;52.018;8.552;2022-09-14T02:57:25;6.70;;;1.73;;
74632;SDS011;63139;52.018;8.552;2022-09-14T02:59:51;7.13;;;1.50;;
74632;SDS011;63139;52.018;8.552;2022-09-14T03:04:42;5.17;;;1.60;;
74632;SDS011;63139;52.018;8.552;2022-09-14T03:07:08;3.07;;;1.33;;
74632;SDS011;63139;52.018;8.552;2022-09-14T03:09:35;7.73;;;2.00;;
74632;SDS011;63139;52.018;8.552;2022-09-14T03:14:25;5.27;;;1.90;;
74632;SDS011;63139;52.018;8.552;2022-09-14T03:16:51;3.70;;;1.83;;
74632;SDS011;63139;52.018;8.552;2022-09-14T03:19:16;4.70;;;1.60;;
74632;SDS011;63139;52.018;8.552;2022-09-14T03:21:42;4.20;;;1.53;;
74632;SDS011;63139;52.018;8.552;2022-09-14T03:24:07;3.83;;;1.90;;
74632;SDS011;63139;52.018;8.552;2022-09-14T03:26:34;3.70;;;1.40;;
74632;SDS011;63139;52.018;8.552;2022-09-14T03:31:25;4.00;;;1.60;;
74632;SDS011;63139;52.018;8.552;2022-09-14T03:33:51;5.93;;;2.13;;
74632;SDS011;63139;52.018;8.552;2022-09-14T03:36:17;5.20;;;1.95;;
74632;SDS011;63139;52.018;8.552;2022-09-14T03:38:43;5.97;;;1.88;;
74632;SDS011;63139;52.018;8.552;2022-09-14T03:43:36;3.67;;;1.53;;
74632;SDS011;63139;52.018;8.552;2022-09-14T03:46:05;4.93;;;1.42;;
74632;SDS011;63139;52.018;8.552;2022-09-14T03:48:31;4.35;;;1.77;;
74632;SDS011;63139;52.018;8.552;2022-09-14T03:50:58;4.13;;;1.60;;
74632;SDS011;63139;52.018;8.552;2022-09-14T03:53:24;6.15;;;1.55;;
74632;SDS011;63139;52.018;8.552;2022-09-14T03:55:49;4.47;;;1.70;;
74632;SDS011;63139;52.018;8.552;2022-09-14T03:58:15;7.97;;;1.83;;
74632;SDS011;63139;52.018;8.552;2022-09-14T04:00:41;4.80;;;1.83;;
74632;SDS011;63139;52.018;8.552;2022-09-14T04:05:32;3.77;;;1.60;;
74632;SDS011;63139;52.018;8.552;2022-09-14T04:07:57;3.67;;;1.53;;
74632;SDS011;63139;52.018;8.552;2022-09-14T04:10:23;5.07;;;1.40;;
74632;SDS011;63139;52.018;8.552;2022-09-14T04:12:48;2.53;;;1.40;;
74632;SDS011;63139;52.018;8.552;2022-09-14T04:15:14;2.83;;;1.47;;
74632;SDS011;63139;52.018;8.552;2022-09-14T04:17:40;5.13;;;1.70;;
74632;SDS011;63139;52.018;8.552;2022-09-14T04:22:32;4.78;;;1.40;;
74632;SDS011;63139;52.018;8.552;2022-09-14T04:24:57;2.87;;;1.50;;
74632;SDS011;63139;52.018;8.552;2022-09-14T04:27:23;3.73;;;1.43;;
74632;SDS011;63139;52.018;8.552;2022-09-14T04:29:48;6.63;;;2.20;;
74632;SDS011;63139;52.018;8.552;2022-09-14T04:32:14;6.73;;;2.03;;
74632;SDS011;63139;52.018;8.552;2022-09-14T04:34:41;10.73;;;2.27;;
74632;SDS011;63139;52.018;8.552;2022-09-14T04:37:06;4.70;;;2.10;;
74632;SDS011;63139;52.018;8.552;2022-09-14T04:39:32;8.40;;;2.20;;
74632;SDS011;63139;52.018;8.552;2022-09-14T04:41:57;3.10;;;1.40;;
74632;SDS011;63139;52.018;8.552;2022-09-14T04:44:23;3.97;;;1.47;;
74632;SDS011;63139;52.018;8.552;2022-09-14T04:46:48;7.23;;;1.93;;
74632;SDS011;63139;52.018;8.552;2022-09-14T04:49:14;2.20;;;1.53;;
74632;SDS011;63139;52.018;8.552;2022-09-14T04:51:41;6.57;;;1.90;;
74632;SDS011;63139;52.018;8.552;2022-09-14T04:56:32;5.70;;;1.80;;
74632;SDS011;63139;52.018;8.552;2022-09-14T04:58:59;4.18;;;1.80;;
74632;SDS011;63139;52.018;8.552;2022-09-14T05:01:26;4.25;;;1.88;;
74632;SDS011;63139;52.018;8.552;2022-09-14T05:03:53;3.53;;;1.63;;
74632;SDS011;63139;52.018;8.552;2022-09-14T05:06:19;3.73;;;1.70;;
74632;SDS011;63139;52.018;8.552;2022-09-14T05:08:47;4.30;;;1.85;;
74632;SDS011;63139;52.018;8.552;2022-09-14T05:11:13;3.97;;;2.00;;
74632;SDS011;63139;52.018;8.552;2022-09-14T05:13:40;5.30;;;1.73;;
74632;SDS011;63139;52.018;8.552;2022-09-14T05:16:06;7.07;;;1.90;;
74632;SDS011;63139;52.018;8.552;2022-09-14T05:18:31;4.85;;;1.88;;
74632;SDS011;63139;52.018;8.552;2022-09-14T05:20:59;3.63;;;1.67;;
74632;SDS011;63139;52.018;8.552;2022-09-14T05:23:25;2.60;;;1.70;;
74632;SDS011;63139;52.018;8.552;2022-09-14T05:25:52;6.17;;;2.03;;
74632;SDS011;63139;52.018;8.552;2022-09-14T05:28:18;7.28;;;2.55;;
74632;SDS011;63139;52.018;8.552;2022-09-14T05:30:43;3.07;;;1.80;;
74632;SDS011;63139;52.018;8.552;2022-09-14T05:33:09;10.77;;;2.27;;
74632;SDS011;63139;52.018;8.552;2022-09-14T05:35:34;4.97;;;2.07;;
74632;SDS011;63139;52.018;8.552;2022-09-14T05:37:59;4.70;;;1.90;;
74632;SDS011;63139;52.018;8.552;2022-09-14T05:40:25;6.30;;;2.20;;
74632;SDS011;63139;52.018;8.552;2022-09-14T05:42:51;6.27;;;2.07;;
74632;SDS011;63139;52.018;8.552;2022-09-14T05:47:42;5.43;;;1.80;;
74632;SDS011;63139;52.018;8.552;2022-09-14T05:50:08;4.77;;;1.90;;
74632;SDS011;63139;52.018;8.552;2022-09-14T05:52:33;6.00;;;1.90;;
74632;SDS011;63139;52.018;8.552;2022-09-14T05:54:59;5.00;;;2.00;;
74632;SDS011;63139;52.018;8.552;2022-09-14T05:57:24;8.40;;;2.47;;
74632;SDS011;63139;52.018;8.552;2022-09-14T05:59:51;5.13;;;1.83;;
74632;SDS011;63139;52.018;8.552;2022-09-14T06:02:16;5.13;;;2.10;;
74632;SDS011;63139;52.018;8.552;2022-09-14T06:04:42;3.77;;;2.30;;
74632;SDS011;63139;52.018;8.552;2022-09-14T06:07:07;5.50;;;2.10;;
74632;SDS011;63139;52.018;8.552;2022-09-14T06:09:33;4.77;;;2.20;;
74632;SDS011;63139;52.018;8.552;2022-09-14T06:11:58;4.13;;;1.97;;
74632;SDS011;63139;52.018;8.552;2022-09-14T06:14:23;5.87;;;2.70;;
74632;SDS011;63139;52.018;8.552;2022-09-14T06:16:50;7.43;;;2.57;;
74632;SDS011;63139;52.018;8.552;2022-09-14T06:19:16;6.15;;;2.40;;
74632;SDS011;63139;52.018;8.552;2022-09-14T06:21:41;7.80;;;2.10;;
74632;SDS011;63139;52.018;8.552;2022-09-14T06:24:08;3.93;;;2.07;;
74632;SDS011;63139;52.018;8.552;2022-09-14T06:26:34;9.32;;;3.13;;
74632;SDS011;63139;52.018;8.552;2022-09-14T06:28:59;5.20;;;2.20;;
74632;SDS011;63139;52.018;8.552;2022-09-14T06:31:25;5.83;;;2.60;;
74632;SDS011;63139;52.018;8.552;2022-09-14T06:33:52;6.53;;;2.40;;
74632;SDS011;63139;52.018;8.552;2022-09-14T06:36:19;5.50;;;2.50;;
74632;SDS011;63139;52.018;8.552;2022-09-14T06:38:46;7.90;;;2.25;;
74632;SDS011;63139;52.018;8.552;2022-09-14T06:41:13;10.07;;;2.45;;
74632;SDS011;63139;52.018;8.552;2022-09-14T06:43:39;10.57;;;3.05;;
74632;SDS011;63139;52.018;8.552;2022-09-14T06:46:06;9.55;;;2.75;;
74632;SDS011;63139;52.018;8.552;2022-09-14T06:48:35;8.15;;;2.90;;
74632;SDS011;63139;52.018;8.552;2022-09-14T06:51:10;7.28;;;2.28;;
74632;SDS011;63139;52.018;8.552;2022-09-14T06:53:38;9.50;;;2.95;;
74632;SDS011;63139;52.018;8.552;2022-09-14T06:56:03;9.33;;;2.90;;
74632;SDS011;63139;52.018;8.552;2022-09-14T06:58:29;9.03;;;2.60;;
74632;SDS011;63139;52.018;8.552;2022-09-14T07:00:54;12.80;;;2.10;;
74632;SDS011;63139;52.018;8.552;2022-09-14T07:03:25;8.70;;;2.30;;
74632;SDS011;63139;52.018;8.552;2022-09-14T07:05:50;8.23;;;3.00;;
74632;SDS011;63139;52.018;8.552;2022-09-14T07:08:17;5.43;;;2.93;;
74632;SDS011;63139;52.018;8.552;2022-09-14T07:13:08;6.43;;;2.60;;
74632;SDS011;63139;52.018;8.552;2022-09-14T07:15:33;10.03;;;3.50;;
74632;SDS011;63139;52.018;8.552;2022-09-14T07:17:59;6.20;;;2.80;;
74632;SDS011;63139;52.018;8.552;2022-09-14T07:20:24;7.70;;;2.40;;
74632;SDS011;63139;52.018;8.552;2022-09-14T07:22:50;6.60;;;1.97;;
74632;SDS011;63139;52.018;8.552;2022-09-14T07:25:16;6.17;;;2.60;;
74632;SDS011;63139;52.018;8.552;2022-09-14T07:30:07;3.60;;;1.80;;
74632;SDS011;63139;52.018;8.552;2022-09-14T07:32:33;3.75;;;2.15;;
74632;SDS011;63139;52.018;8.552;2022-09-14T07:34:59;7.43;;;2.27;;
74632;SDS011;63139;52.018;8.552;2022-09-14T07:37:24;6.10;;;1.97;;
74632;SDS011;63139;52.018;8.552;2022-09-14T07:39:49;6.37;;;2.37;;
74632;SDS011;63139;52.018;8.552;2022-09-14T07:42:16;6.73;;;2.10;;
74632;SDS011;63139;52.018;8.552;2022-09-14T07:44:42;8.43;;;2.50;;
74632;SDS011;63139;52.018;8.552;2022-09-14T07:47:07;5.90;;;1.97;;
74632;SDS011;63139;52.018;8.552;2022-09-14T07:49:32;6.50;;;2.10;;
74632;SDS011;63139;52.018;8.552;2022-09-14T07:51:58;5.00;;;1.90;;
74632;SDS011;63139;52.018;8.552;2022-09-14T07:54:23;8.53;;;2.30;;
74632;SDS011;63139;52.018;8.552;2022-09-14T07:56:49;5.50;;;2.00;;
74632;SDS011;63139;52.018;8.552;2022-09-14T07:59:16;5.30;;;1.70;;
74632;SDS011;63139;52.018;8.552;2022-09-14T08:01:41;5.57;;;2.00;;
74632;SDS011;63139;52.018;8.552;2022-09-14T08:04:07;6.40;;;2.50;;
74632;SDS011;63139;52.018;8.552;2022-09-14T08:06:33;5.20;;;1.70;;
74632;SDS011;63139;52.018;8.552;2022-09-14T08:11:34;4.22;;;1.70;;
74632;SDS011;63139;52.018;8.552;2022-09-14T08:14:01;4.50;;;1.60;;
74632;SDS011;63139;52.018;8.552;2022-09-14T08:16:30;6.38;;;1.77;;
74632;SDS011;63139;52.018;8.552;2022-09-14T08:18:58;3.72;;;1.65;;
74632;SDS011;63139;52.018;8.552;2022-09-14T08:21:24;4.45;;;1.50;;
74632;SDS011;63139;52.018;8.552;2022-09-14T08:23:50;5.13;;;1.60;;
74632;SDS011;63139;52.018;8.552;2022-09-14T08:26:16;5.60;;;1.63;;
74632;SDS011;63139;52.018;8.552;2022-09-14T08:28:43;3.03;;;1.50;;
74632;SDS011;63139;52.018;8.552;2022-09-14T08:31:10;5.80;;;1.80;;
74632;SDS011;63139;52.018;8.552;2022-09-14T08:33:38;3.00;;;1.65;;
74632;SDS011;63139;52.018;8.552;2022-09-14T08:36:05;5.25;;;1.70;;
74632;SDS011;63139;52.018;8.552;2022-09-14T08:38:31;3.75;;;1.67;;
74632;SDS011;63139;52.018;8.552;2022-09-14T08:40:57;7.43;;;1.97;;
74632;SDS011;63139;52.018;8.552;2022-09-14T08:43:23;6.50;;;1.60;;
74632;SDS011;63139;52.018;8.552;2022-09-14T08:45:49;7.35;;;1.30;;
74632;SDS011;63139;52.018;8.552;2022-09-14T08:48:21;3.13;;;1.40;;
74632;SDS011;63139;52.018;8.552;2022-09-14T08:50:51;5.05;;;1.50;;
74632;SDS011;63139;52.018;8.552;2022-09-14T08:53:16;5.00;;;1.40;;
74632;SDS011;63139;52.018;8.552;2022-09-14T08:55:44;3.03;;;1.60;;
74632;SDS011;63139;52.018;8.552;2022-09-14T08:58:13;5.10;;;1.55;;
74632;SDS011;63139;52.018;8.552;2022-09-14T09:00:44;6.05;;;1.50;;
74632;SDS011;63139;52.018;8.552;2022-09-14T09:06:05;4.10;;;1.40;;
74632;SDS011;63139;52.018;8.552;2022-09-14T09:08:35;6.72;;;1.50;;
74632;SDS011;63139;52.018;8.552;2022-09-14T09:11:03;4.32;;;1.48;;
74632;SDS011;63139;52.018;8.552;2022-09-14T09:13:31;7.05;;;1.65;;
74632;SDS011;63139;52.018;8.552;2022-09-14T09:15:59;5.38;;;1.50;;
74632;SDS011;63139;52.018;8.552;2022-09-14T09:18:30;5.38;;;1.70;;
74632;SDS011;63139;52.018;8.552;2022-09-14T09:20:59;4.15;;;1.63;;
74632;SDS011;63139;52.018;8.552;2022-09-14T09:23:29;4.10;;;1.50;;
74632;SDS011;63139;52.018;8.552;2022-09-14T09:25:56;4.38;;;1.50;;
74632;SDS011;63139;52.018;8.552;2022-09-14T09:28:23;7.68;;;1.58;;
74632;SDS011;63139;52.018;8.552;2022-09-14T09:30:50;4.15;;;1.42;;
74632;SDS011;63139;52.018;8.552;2022-09-14T09:33:19;9.80;;;1.70;;
74632;SDS011;63139;52.018;8.552;2022-09-14T09:35:45;2.60;;;1.30;;
74632;SDS011;63139;52.018;8.552;2022-09-14T09:38:13;6.33;;;1.63;;
74632;SDS011;63139;52.018;8.552;2022-09-14T09:40:40;4.07;;;1.30;;
74632;SDS011;63139;52.018;8.552;2022-09-14T09:43:08;5.10;;;1.38;;
74632;SDS011;63139;52.018;8.552;2022-09-14T09:48:22;7.43;;;1.60;;
74632;SDS011;63139;52.018;8.552;2022-09-14T09:50:51;6.30;;;1.73;;
74632;SDS011;63139;52.018;8.552;2022-09-14T09:53:24;6.60;;;1.30;;
74632;SDS011;63139;52.018;8.552;2022-09-14T09:55:49;5.07;;;1.60;;
74632;SDS011;63139;52.018;8.552;2022-09-14T09:58:29;4.37;;;1.73;;
74632;SDS011;63139;52.018;8.552;2022-09-14T10:00:59;3.45;;;1.65;;
74632;SDS011;63139;52.018;8.552;2022-09-14T10:03:27;7.85;;;1.73;;
74632;SDS011;63139;52.018;8.552;2022-09-14T10:06:04;3.00;;;1.50;;
74632;SDS011;63139;52.018;8.552;2022-09-14T10:08:33;7.55;;;1.48;;
74632;SDS011;63139;52.018;8.552;2022-09-14T10:11:04;5.35;;;1.70;;
74632;SDS011;63139;52.018;8.552;2022-09-14T10:13:31;3.83;;;1.33;;
74632;SDS011;63139;52.018;8.552;2022-09-14T10:16:04;8.15;;;1.85;;
74632;SDS011;63139;52.018;8.552;2022-09-14T10:18:30;2.78;;;1.30;;
74632;SDS011;63139;52.018;8.552;2022-09-14T10:21:06;5.03;;;1.50;;
74632;SDS011;63139;52.018;8.552;2022-09-14T10:23:34;9.32;;;1.95;;
74632;SDS011;63139;52.018;8.552;2022-09-14T10:26:18;9.80;;;1.73;;
74632;SDS011;63139;52.018;8.552;2022-09-14T10:28:48;3.80;;;1.45;;
74632;SDS011;63139;52.018;8.552;2022-09-14T10:33:41;5.85;;;1.58;;
74632;SDS011;63139;52.018;8.552;2022-09-14T10:36:08;4.67;;;1.33;;
74632;SDS011;63139;52.018;8.552;2022-09-14T10:38:38;4.88;;;1.27;;
74632;SDS011;63139;52.018;8.552;2022-09-14T10:41:08;3.47;;;1.50;;
74632;SDS011;63139;52.018;8.552;2022-09-14T10:43:42;5.30;;;1.65;;
74632;SDS011;63139;52.018;8.552;2022-09-14T10:46:19;3.33;;;1.45;;
74632;SDS011;63139;52.018;8.552;2022-09-14T10:48:49;7.93;;;1.50;;
74632;SDS011;63139;52.018;8.552;2022-09-14T10:51:27;3.92;;;1.38;;
74632;SDS011;63139;52.018;8.552;2022-09-14T10:54:01;4.82;;;1.50;;
74632;SDS011;63139;52.018;8.552;2022-09-14T10:56:35;5.38;;;1.30;;
74632;SDS011;63139;52.018;8.552;2022-09-14T10:59:13;4.88;;;1.30;;
74632;SDS011;63139;52.018;8.552;2022-09-14T11:01:50;5.95;;;1.10;;
74632;SDS011;63139;52.018;8.552;2022-09-14T11:04:30;3.90;;;1.35;;
74632;SDS011;63139;52.018;8.552;2022-09-14T11:07:04;3.20;;;1.17;;
74632;SDS011;63139;52.018;8.552;2022-09-14T11:09:34;7.05;;;1.30;;
74632;SDS011;63139;52.018;8.552;2022-09-14T11:12:03;2.88;;;1.10;;
74632;SDS011;63139;52.018;8.552;2022-09-14T11:14:38;2.35;;;1.00;;
74632;SDS011;63139;52.018;8.552;2022-09-14T11:17:14;4.15;;;1.45;;
74632;SDS011;63139;52.018;8.552;2022-09-14T11:19:54;7.72;;;1.40;;
74632;SDS011;63139;52.018;8.552;2022-09-14T11:22:24;2.75;;;1.42;;
74632;SDS011;63139;52.018;8.552;2022-09-14T11:24:55;2.85;;;1.30;;
74632;SDS011;63139;52.018;8.552;2022-09-14T11:27:22;5.03;;;1.10;;
74632;SDS011;63139;52.018;8.552;2022-09-14T11:29:50;5.05;;;1.10;;
74632;SDS011;63139;52.018;8.552;2022-09-14T11:32:19;5.13;;;1.20;;
74632;SDS011;63139;52.018;8.552;2022-09-14T11:34:47;4.57;;;1.23;;
74632;SDS011;63139;52.018;8.552;2022-09-14T11:37:15;1.80;;;0.90;;
74632;SDS011;63139;52.018;8.552;2022-09-14T11:39:42;4.85;;;1.58;;
74632;SDS011;63139;52.018;8.552;2022-09-14T11:42:12;8.73;;;1.27;;
74632;SDS011;63139;52.018;8.552;2022-09-14T11:44:39;2.17;;;1.20;;
74632;SDS011;63139;52.018;8.552;2022-09-14T11:47:06;3.90;;;1.23;;
74632;SDS011;63139;52.018;8.552;2022-09-14T11:49:46;5.85;;;1.40;;
74632;SDS011;63139;52.018;8.552;2022-09-14T11:52:16;5.45;;;1.40;;
74632;SDS011;63139;52.018;8.552;2022-09-14T11:54:43;4.55;;;1.30;;
74632;SDS011;63139;52.018;8.552;2022-09-14T11:57:12;5.27;;;1.73;;
74632;SDS011;63139;52.018;8.552;2022-09-14T11:59:48;4.10;;;1.40;;
74632;SDS011;63139;52.018;8.552;2022-09-14T12:05:28;4.35;;;1.40;;
74632;SDS011;63139;52.018;8.552;2022-09-14T12:07:58;7.65;;;1.95;;
74632;SDS011;63139;52.018;8.552;2022-09-14T12:13:24;3.53;;;1.80;;
74632;SDS011;63139;52.018;8.552;2022-09-14T12:15:55;3.40;;;1.58;;
74632;SDS011;63139;52.018;8.552;2022-09-14T12:18:25;6.50;;;1.85;;
74632;SDS011;63139;52.018;8.552;2022-09-14T12:21:00;6.55;;;1.67;;
74632;SDS011;63139;52.018;8.552;2022-09-14T12:23:31;4.18;;;1.40;;
74632;SDS011;63139;52.018;8.552;2022-09-14T12:29:06;2.78;;;1.33;;
74632;SDS011;63139;52.018;8.552;2022-09-14T12:32:00;4.55;;;1.27;;
74632;SDS011;63139;52.018;8.552;2022-09-14T12:34:28;3.92;;;1.40;;
74632;SDS011;63139;52.018;8.552;2022-09-14T12:37:07;4.95;;;1.60;;
74632;SDS011;63139;52.018;8.552;2022-09-14T12:48:57;4.97;;;1.30;;
74632;SDS011;63139;52.018;8.552;2022-09-14T12:51:28;3.83;;;1.27;;
74632;SDS011;63139;52.018;8.552;2022-09-14T12:54:00;4.07;;;1.17;;
74632;SDS011;63139;52.018;8.552;2022-09-14T12:56:28;3.25;;;1.13;;
74632;SDS011;63139;52.018;8.552;2022-09-14T12:58:59;4.80;;;1.30;;
74632;SDS011;63139;52.018;8.552;2022-09-14T13:01:31;4.72;;;1.20;;
74632;SDS011;63139;52.018;8.552;2022-09-14T13:03:59;3.38;;;1.17;;
74632;SDS011;63139;52.018;8.552;2022-09-14T13:06:29;2.05;;;1.23;;
74632;SDS011;63139;52.018;8.552;2022-09-14T13:08:58;2.17;;;0.98;;
74632;SDS011;63139;52.018;8.552;2022-09-14T13:11:27;3.83;;;1.45;;
74632;SDS011;63139;52.018;8.552;2022-09-14T13:13:56;1.98;;;1.10;;
74632;SDS011;63139;52.018;8.552;2022-09-14T13:19:15;2.78;;;1.20;;
74632;SDS011;63139;52.018;8.552;2022-09-14T13:21:44;3.25;;;1.05;;
74632;SDS011;63139;52.018;8.552;2022-09-14T13:24:27;2.13;;;1.17;;
74632;SDS011;63139;52.018;8.552;2022-09-14T13:26:55;1.90;;;1.20;;
74632;SDS011;63139;52.018;8.552;2022-09-14T13:29:21;3.53;;;1.20;;
74632;SDS011;63139;52.018;8.552;2022-09-14T13:31:48;3.60;;;1.10;;
74632;SDS011;63139;52.018;8.552;2022-09-14T13:34:16;7.28;;;2.38;;
74632;SDS011;63139;52.018;8.552;2022-09-14T13:36:48;5.10;;;1.63;;
74632;SDS011;63139;52.018;8.552;2022-09-14T13:39:16;5.43;;;1.50;;
74632;SDS011;63139;52.018;8.552;2022-09-14T13:41:48;4.63;;;1.50;;
74632;SDS011;63139;52.018;8.552;2022-09-14T13:44:13;2.73;;;1.17;;
74632;SDS011;63139;52.018;8.552;2022-09-14T13:46:39;3.97;;;1.10;;
74632;SDS011;63139;52.018;8.552;2022-09-14T13:49:06;5.03;;;1.47;;
74632;SDS011;63139;52.018;8.552;2022-09-14T13:51:31;4.53;;;1.40;;
74632;SDS011;63139;52.018;8.552;2022-09-14T13:53:57;2.83;;;1.20;;
74632;SDS011;63139;52.018;8.552;2022-09-14T13:56:40;4.57;;;1.27;;
74632;SDS011;63139;52.018;8.552;2022-09-14T13:59:13;4.80;;;1.10;;
74632;SDS011;63139;52.018;8.552;2022-09-14T14:01:52;4.25;;;1.85;;
74632;SDS011;63139;52.018;8.552;2022-09-14T14:04:22;3.08;;;1.42;;
74632;SDS011;63139;52.018;8.552;2022-09-14T14:06:57;4.63;;;1.77;;
74632;SDS011;63139;52.018;8.552;2022-09-14T14:09:24;3.80;;;1.50;;
74632;SDS011;63139;52.018;8.552;2022-09-14T14:12:02;4.22;;;1.73;;
74632;SDS011;63139;52.018;8.552;2022-09-14T14:14:28;3.30;;;1.40;;
74632;SDS011;63139;52.018;8.552;2022-09-14T14:19:49;3.08;;;1.60;;
74632;SDS011;63139;52.018;8.552;2022-09-14T14:22:16;5.05;;;1.65;;
74632;SDS011;63139;52.018;8.552;2022-09-14T14:24:43;5.03;;;1.70;;
74632;SDS011;63139;52.018;8.552;2022-09-14T14:27:17;5.47;;;1.95;;
74632;SDS011;63139;52.018;8.552;2022-09-14T14:29:52;3.17;;;1.33;;
74632;SDS011;63139;52.018;8.552;2022-09-14T14:32:19;3.85;;;1.45;;
74632;SDS011;63139;52.018;8.552;2022-09-14T14:34:44;3.90;;;1.58;;
74632;SDS011;63139;52.018;8.552;2022-09-14T14:37:11;4.57;;;1.60;;
74632;SDS011;63139;52.018;8.552;2022-09-14T14:39:37;2.17;;;1.30;;
74632;SDS011;63139;52.018;8.552;2022-09-14T14:42:02;3.07;;;1.43;;
74632;SDS011;63139;52.018;8.552;2022-09-14T14:44:28;3.00;;;1.33;;
74632;SDS011;63139;52.018;8.552;2022-09-14T14:46:54;3.13;;;1.30;;
74632;SDS011;63139;52.018;8.552;2022-09-14T14:49:20;3.88;;;1.25;;
74632;SDS011;63139;52.018;8.552;2022-09-14T14:51:45;3.43;;;1.57;;
74632;SDS011;63139;52.018;8.552;2022-09-14T14:54:12;2.87;;;1.40;;
74632;SDS011;63139;52.018;8.552;2022-09-14T14:56:38;2.78;;;1.30;;
74632;SDS011;63139;52.018;8.552;2022-09-14T14:59:13;3.80;;;1.47;;
74632;SDS011;63139;52.018;8.552;2022-09-14T15:01:39;2.70;;;1.33;;
74632;SDS011;63139;52.018;8.552;2022-09-14T15:04:05;3.90;;;1.40;;
74632;SDS011;63139;52.018;8.552;2022-09-14T15:06:30;2.83;;;1.10;;
74632;SDS011;63139;52.018;8.552;2022-09-14T15:08:56;2.63;;;1.70;;
74632;SDS011;63139;52.018;8.552;2022-09-14T15:11:22;3.23;;;1.10;;
74632;SDS011;63139;52.018;8.552;2022-09-14T15:13:48;3.97;;;1.30;;
74632;SDS011;63139;52.018;8.552;2022-09-14T15:16:14;2.57;;;1.67;;
74632;SDS011;63139;52.018;8.552;2022-09-14T15:18:39;3.43;;;1.80;;
74632;SDS011;63139;52.018;8.552;2022-09-14T15:21:07;1.95;;;1.30;;
74632;SDS011;63139;52.018;8.552;2022-09-14T15:23:33;5.47;;;1.70;;
74632;SDS011;63139;52.018;8.552;2022-09-14T15:25:58;2.23;;;1.47;;
74632;SDS011;63139;52.018;8.552;2022-09-14T15:28:25;2.37;;;1.50;;
74632;SDS011;63139;52.018;8.552;2022-09-14T15:30:51;4.30;;;1.25;;
74632;SDS011;63139;52.018;8.552;2022-09-14T15:33:16;4.47;;;1.27;;
74632;SDS011;63139;52.018;8.552;2022-09-14T15:35:42;2.03;;;1.27;;
74632;SDS011;63139;52.018;8.552;2022-09-14T15:38:08;2.60;;;1.50;;
74632;SDS011;63139;52.018;8.552;2022-09-14T15:40:33;3.10;;;2.40;;
74632;SDS011;63139;52.018;8.552;2022-09-14T15:42:58;3.80;;;1.90;;
74632;SDS011;63139;52.018;8.552;2022-09-14T15:45:25;4.67;;;2.53;;
74632;SDS011;63139;52.018;8.552;2022-09-14T15:47:51;6.63;;;2.20;;
74632;SDS011;63139;52.018;8.552;2022-09-14T15:50:16;4.67;;;2.40;;
74632;SDS011;63139;52.018;8.552;2022-09-14T15:52:42;3.50;;;2.10;;
74632;SDS011;63139;52.018;8.552;2022-09-14T15:55:08;4.63;;;2.97;;